Time;durP1;ratioP1;P1;durP2;ratioP2;P2;SDS_P1;SDS_P2;PMS_P1;PMS_P2;Temp;Humidity;BMP_temperature;BMP_pressure;BME280_temperature;BME280_humidity;BME280_pressure;Samples;Min_cycle;Max_cycle;Signal;HPM_P1;HPM_P2
2023/07/18 00:00:33;;;;;;;4.40;2.53;;;16.70;81.80;;;;;;4952980;28;20035;-81
2023/07/18 00:02:59;;;;;;;4.90;2.45;;;16.70;82.00;;;;;;4955572;28;20107;-80
2023/07/18 00:05:25;;;;;;;4.00;2.38;;;16.70;82.00;;;;;;4958757;28;20518;-82
2023/07/18 00:07:51;;;;;;;5.25;2.75;;;16.60;83.00;;;;;;4958557;28;20043;-79
2023/07/18 00:10:19;;;;;;;4.10;2.17;;;16.50;82.80;;;;;;4956350;28;20078;-79
2023/07/18 00:12:45;;;;;;;7.82;2.63;;;16.50;82.50;;;;;;4960625;28;20050;-80
2023/07/18 00:15:12;;;;;;;7.70;2.50;;;16.40;83.30;;;;;;4954354;28;20099;-81
2023/07/18 00:17:39;;;;;;;4.07;2.40;;;16.40;83.70;;;;;;4957778;28;20042;-80
2023/07/18 00:20:09;;;;;;;2.92;1.92;;;16.30;83.90;;;;;;4960436;28;20031;-81
2023/07/18 00:22:40;;;;;;;2.65;2.20;;;16.30;84.20;;;;;;4962380;28;20482;-81
2023/07/18 00:25:13;;;;;;;4.13;2.22;;;16.30;84.20;;;;;;4965654;28;20552;-79
2023/07/18 00:27:39;;;;;;;4.07;2.50;;;16.20;84.20;;;;;;4979295;28;20167;-78
2023/07/18 00:30:12;;;;;;;4.78;2.50;;;16.20;84.90;;;;;;4965664;28;20034;-81
2023/07/18 00:32:39;;;;;;;6.28;2.40;;;16.20;85.10;;;;;;4962779;28;20449;-81
2023/07/18 00:35:05;;;;;;;5.45;2.85;;;16.20;85.20;;;;;;4965438;28;20043;-80
2023/07/18 00:37:32;;;;;;;5.00;2.10;;;16.10;84.90;;;;;;4969631;28;20759;-78
2023/07/18 00:39:58;;;;;;;7.57;2.60;;;16.20;84.90;;;;;;4965056;28;20512;-79
2023/07/18 00:42:24;;;;;;;7.65;2.47;;;16.10;84.90;;;;;;4978543;28;20039;-79
2023/07/18 00:44:50;;;;;;;5.60;2.42;;;16.10;85.40;;;;;;4963407;28;20035;-79
2023/07/18 00:47:41;;;;;;;4.78;2.30;;;16.10;86.10;;;;;;4962499;28;20065;-82
2023/07/18 00:50:08;;;;;;;6.82;2.70;;;16.10;87.30;;;;;;4961554;28;20469;-82
2023/07/18 00:52:47;;;;;;;3.20;2.05;;;16.10;87.10;;;;;;4979136;28;20050;-80
2023/07/18 00:55:14;;;;;;;6.60;2.53;;;16.10;87.30;;;;;;4962675;28;20054;-80
2023/07/18 00:57:41;;;;;;;2.90;2.60;;;16.00;87.40;;;;;;4965551;28;20043;-80
2023/07/18 01:00:11;;;;;;;4.57;2.17;;;16.00;87.20;;;;;;4955616;28;20031;-79
2023/07/18 01:02:46;;;;;;;3.58;2.53;;;15.90;87.30;;;;;;4963589;28;20027;-79
2023/07/18 01:05:18;;;;;;;4.07;2.60;;;15.80;87.40;;;;;;4952749;28;20063;-80
2023/07/18 01:07:45;;;;;;;4.00;2.50;;;15.70;88.40;;;;;;4959150;28;20485;-79
2023/07/18 01:10:23;;;;;;;3.45;2.30;;;15.70;89.00;;;;;;4973780;28;20086;-80
2023/07/18 01:12:55;;;;;;;5.00;2.70;;;15.60;89.60;;;;;;4958964;28;20031;-81
2023/07/18 01:15:24;;;;;;;3.72;2.40;;;15.60;89.70;;;;;;4963978;28;20498;-80
2023/07/18 01:17:50;;;;;;;3.83;2.45;;;15.50;89.50;;;;;;4960352;28;20049;-81
2023/07/18 01:20:28;;;;;;;2.75;2.30;;;15.40;89.10;;;;;;4975416;28;20471;-79
2023/07/18 01:22:57;;;;;;;5.75;2.53;;;15.40;88.90;;;;;;4952453;29;20098;-80
2023/07/18 01:25:23;;;;;;;3.50;2.17;;;15.30;89.20;;;;;;4959854;28;20546;-80
2023/07/18 01:27:52;;;;;;;7.65;2.47;;;15.20;89.00;;;;;;4957340;28;20073;-80
2023/07/18 01:30:20;;;;;;;3.88;2.28;;;15.20;89.50;;;;;;4960974;28;20035;-79
2023/07/18 01:32:49;;;;;;;3.53;2.38;;;15.10;90.60;;;;;;4961364;28;20031;-79
2023/07/18 01:35:17;;;;;;;5.03;2.45;;;15.10;91.00;;;;;;4958002;28;20051;-80
2023/07/18 01:37:46;;;;;;;9.48;2.50;;;15.00;91.20;;;;;;4959497;28;20031;-78
2023/07/18 01:40:21;;;;;;;4.63;2.67;;;14.90;91.40;;;;;;4958034;28;20110;-80
2023/07/18 01:42:54;;;;;;;5.40;2.83;;;14.80;91.50;;;;;;4958257;28;20027;-79
2023/07/18 01:45:24;;;;;;;6.00;3.03;;;14.60;91.90;;;;;;4958887;28;20166;-80
2023/07/18 01:47:51;;;;;;;6.25;2.72;;;14.60;91.90;;;;;;4959019;28;20141;-79
2023/07/18 01:50:17;;;;;;;4.45;2.50;;;14.50;92.30;;;;;;4954848;28;20035;-80
2023/07/18 01:52:43;;;;;;;5.50;2.85;;;14.40;92.70;;;;;;4952911;28;20047;-80
2023/07/18 01:55:12;;;;;;;6.00;2.63;;;14.30;92.70;;;;;;4962170;28;20030;-80
2023/07/18 01:57:40;;;;;;;4.22;2.83;;;14.30;92.50;;;;;;4966331;28;20079;-80
2023/07/18 02:00:12;;;;;;;4.13;2.70;;;14.30;92.70;;;;;;4960949;28;20042;-80
2023/07/18 02:02:41;;;;;;;4.95;2.70;;;14.30;92.80;;;;;;4964687;28;20074;-80
2023/07/18 02:05:08;;;;;;;8.13;2.70;;;14.30;93.60;;;;;;4965717;28;20106;-80
2023/07/18 02:07:35;;;;;;;3.47;2.28;;;14.20;94.20;;;;;;4967175;28;20039;-81
2023/07/18 02:10:01;;;;;;;4.25;2.55;;;14.20;94.10;;;;;;4955850;28;20027;-81
2023/07/18 02:12:28;;;;;;;4.40;2.55;;;14.10;94.20;;;;;;4963986;28;20081;-80
2023/07/18 02:14:54;;;;;;;5.00;2.50;;;14.10;94.60;;;;;;4981328;28;20051;-79
2023/07/18 02:17:20;;;;;;;5.25;2.67;;;14.10;94.90;;;;;;4969729;28;20035;-79
2023/07/18 02:19:46;;;;;;;5.95;2.15;;;14.10;95.30;;;;;;4967468;28;20031;-80
2023/07/18 02:22:12;;;;;;;4.28;2.63;;;14.00;95.60;;;;;;4962599;28;20061;-81
2023/07/18 02:24:41;;;;;;;3.30;2.35;;;14.00;95.80;;;;;;4945112;28;20027;-80
2023/07/18 02:27:07;;;;;;;4.55;2.83;;;14.00;96.00;;;;;;4960334;28;20131;-80
2023/07/18 02:29:32;;;;;;;4.05;2.58;;;14.00;96.10;;;;;;4959856;28;20058;-79
2023/07/18 02:31:58;;;;;;;3.95;2.45;;;14.00;96.40;;;;;;4956830;28;20473;-79
2023/07/18 02:34:25;;;;;;;3.83;2.25;;;13.90;97.00;;;;;;4943918;28;20039;-82
2023/07/18 02:36:52;;;;;;;5.30;2.58;;;13.90;97.20;;;;;;4966987;28;20087;-80
2023/07/18 02:39:20;;;;;;;3.78;2.42;;;13.80;97.60;;;;;;4969256;28;20046;-80
2023/07/18 02:41:47;;;;;;;5.50;2.97;;;13.70;97.70;;;;;;4970184;28;20034;-83
2023/07/18 02:44:13;;;;;;;4.03;2.75;;;13.70;97.80;;;;;;4966807;28;20042;-82
2023/07/18 02:46:38;;;;;;;9.50;2.60;;;13.60;97.80;;;;;;4970107;28;20096;-81
2023/07/18 02:49:04;;;;;;;5.45;2.50;;;13.60;98.30;;;;;;4968139;28;20031;-82
2023/07/18 02:51:30;;;;;;;8.00;2.65;;;13.50;98.60;;;;;;4961206;28;20617;-78
2023/07/18 02:53:56;;;;;;;2.95;2.33;;;13.50;98.70;;;;;;4956401;28;20035;-80
2023/07/18 02:56:22;;;;;;;3.65;2.25;;;13.50;98.90;;;;;;4954276;28;20485;-80
2023/07/18 02:58:51;;;;;;;5.50;2.70;;;13.40;99.20;;;;;;4954922;28;20039;-81
2023/07/18 03:01:38;;;;;;;8.35;2.80;;;13.40;99.50;;;;;;4952882;28;20058;-80
2023/07/18 03:04:30;;;;;;;4.55;2.50;;;13.30;99.60;;;;;;4945038;28;20203;-80
2023/07/18 03:06:57;;;;;;;4.85;2.60;;;13.30;99.90;;;;;;4934629;28;20038;-78
2023/07/18 03:09:23;;;;;;;7.38;3.00;;;13.20;99.90;;;;;;4957025;28;20027;-80
2023/07/18 03:11:52;;;;;;;4.20;2.45;;;13.20;99.90;;;;;;4960256;28;20023;-78
2023/07/18 03:14:19;;;;;;;4.13;2.67;;;13.10;99.90;;;;;;4960139;28;20043;-80
2023/07/18 03:16:47;;;;;;;5.55;2.72;;;13.20;99.90;;;;;;4964966;28;20027;-80
2023/07/18 03:19:14;;;;;;;4.50;2.65;;;13.20;99.90;;;;;;4958408;28;20031;-80
2023/07/18 03:21:40;;;;;;;6.65;2.72;;;13.00;99.90;;;;;;4952341;28;20031;-79
2023/07/18 03:24:07;;;;;;;4.82;2.78;;;12.90;99.90;;;;;;4961187;28;20030;-80
2023/07/18 03:26:38;;;;;;;5.28;3.10;;;12.90;99.90;;;;;;4972660;28;20053;-80
2023/07/18 03:29:06;;;;;;;7.47;2.75;;;12.90;99.90;;;;;;4967009;28;20494;-81
2023/07/18 03:31:35;;;;;;;6.45;2.75;;;12.90;99.90;;;;;;4965096;28;20094;-82
2023/07/18 03:34:04;;;;;;;7.00;3.05;;;12.90;99.90;;;;;;4964696;28;20027;-81
2023/07/18 03:36:30;;;;;;;4.07;2.70;;;13.00;99.90;;;;;;4964988;28;20102;-81
2023/07/18 03:38:56;;;;;;;3.63;2.63;;;13.00;99.90;;;;;;4975818;28;20400;-80
2023/07/18 03:41:24;;;;;;;3.40;2.80;;;13.00;99.90;;;;;;4962531;28;20045;-79
2023/07/18 03:43:50;;;;;;;3.75;3.03;;;12.90;99.90;;;;;;4950283;28;20486;-80
2023/07/18 03:46:16;;;;;;;4.75;2.83;;;13.00;99.90;;;;;;4973806;28;20046;-79
2023/07/18 03:49:00;;;;;;;5.63;2.88;;;13.00;99.90;;;;;;4955438;28;20418;-80
2023/07/18 03:51:26;;;;;;;3.55;2.53;;;13.00;99.90;;;;;;4960642;28;20034;-80
2023/07/18 03:53:52;;;;;;;4.57;2.97;;;13.00;99.90;;;;;;4957755;28;20446;-78
2023/07/18 03:56:17;;;;;;;3.90;2.95;;;13.00;99.90;;;;;;4956538;28;20494;-82
2023/07/18 03:58:43;;;;;;;4.05;2.97;;;13.00;99.90;;;;;;4959740;28;20171;-80
2023/07/18 04:01:10;;;;;;;5.70;3.20;;;13.00;99.90;;;;;;4960894;28;20489;-80
2023/07/18 04:03:39;;;;;;;4.15;2.83;;;13.00;99.90;;;;;;4956192;28;20701;-81
2023/07/18 04:06:06;;;;;;;4.10;2.78;;;13.00;99.90;;;;;;4963139;28;20043;-79
2023/07/18 04:08:32;;;;;;;7.65;3.63;;;13.00;99.90;;;;;;4962517;28;20039;-79
2023/07/18 04:10:58;;;;;;;4.35;3.05;;;13.00;99.90;;;;;;4958714;28;20038;-80
2023/07/18 04:13:25;;;;;;;5.60;2.70;;;12.90;99.90;;;;;;4961366;28;20065;-80
2023/07/18 04:15:54;;;;;;;4.70;3.13;;;12.90;99.90;;;;;;4965579;28;20074;-79
2023/07/18 04:18:20;;;;;;;5.05;2.95;;;12.90;99.90;;;;;;4952721;28;20039;-81
2023/07/18 04:20:46;;;;;;;7.00;3.53;;;12.90;99.90;;;;;;4959690;28;20023;-80
2023/07/18 04:23:12;;;;;;;5.93;3.05;;;12.80;99.90;;;;;;4953083;28;20085;-79
2023/07/18 04:25:54;;;;;;;3.80;2.90;;;12.90;99.90;;;;;;4962825;28;20043;-80
2023/07/18 04:28:20;;;;;;;5.38;3.33;;;12.90;99.90;;;;;;4961577;28;20434;-80
2023/07/18 04:30:46;;;;;;;4.55;3.15;;;13.00;99.90;;;;;;4967965;28;20047;-80
2023/07/18 04:33:12;;;;;;;3.80;2.83;;;13.00;99.90;;;;;;4969653;28;20049;-80
2023/07/18 04:35:39;;;;;;;5.85;3.10;;;13.10;99.90;;;;;;4962654;28;20046;-81
2023/07/18 04:38:06;;;;;;;3.08;2.60;;;13.10;99.90;;;;;;4959386;28;20054;-78
2023/07/18 04:40:33;;;;;;;5.85;2.78;;;13.20;99.90;;;;;;4961512;28;20035;-79
2023/07/18 04:42:58;;;;;;;5.55;3.15;;;13.20;99.90;;;;;;4961968;28;20421;-79
2023/07/18 04:45:24;;;;;;;3.60;2.78;;;13.30;99.90;;;;;;4962182;28;20039;-80
2023/07/18 04:47:50;;;;;;;8.18;2.80;;;13.30;99.90;;;;;;4967680;28;20038;-80
2023/07/18 04:50:16;;;;;;;6.43;3.00;;;13.40;99.90;;;;;;4960057;28;20047;-80
2023/07/18 04:52:42;;;;;;;10.02;3.33;;;13.40;99.90;;;;;;4953695;28;20168;-80
2023/07/18 04:55:08;;;;;;;4.53;2.90;;;13.50;99.90;;;;;;4950392;28;20047;-79
2023/07/18 04:57:34;;;;;;;6.22;2.53;;;13.50;99.90;;;;;;4954529;28;20070;-81
2023/07/18 05:00:00;;;;;;;3.70;2.80;;;13.60;99.90;;;;;;4959995;28;20397;-80
2023/07/18 05:02:26;;;;;;;6.20;2.72;;;13.70;99.90;;;;;;4963582;28;20043;-80
2023/07/18 05:04:52;;;;;;;6.68;2.90;;;13.70;99.90;;;;;;4970520;28;20070;-80
2023/07/18 05:07:17;;;;;;;4.40;2.95;;;13.80;99.90;;;;;;4970032;28;20047;-80
2023/07/18 05:09:46;;;;;;;4.78;3.10;;;13.90;99.90;;;;;;4967996;28;20066;-78
2023/07/18 05:12:30;;;;;;;5.43;3.22;;;14.00;99.90;;;;;;4967270;28;20073;-80
2023/07/18 05:14:56;;;;;;;3.30;2.88;;;14.10;99.90;;;;;;4964935;28;20039;-79
2023/07/18 05:17:21;;;;;;;8.35;3.00;;;14.20;99.90;;;;;;4966709;28;20031;-79
2023/07/18 05:19:47;;;;;;;4.78;2.95;;;14.30;99.90;;;;;;4964678;28;20034;-82
2023/07/18 05:22:13;;;;;;;4.38;3.08;;;14.40;99.90;;;;;;4968455;28;20054;-83
2023/07/18 05:24:39;;;;;;;4.28;2.70;;;14.50;99.90;;;;;;4962755;28;20042;-81
2023/07/18 05:27:05;;;;;;;3.80;3.25;;;14.60;99.90;;;;;;4956765;28;20034;-80
2023/07/18 05:29:31;;;;;;;6.00;3.22;;;14.70;99.90;;;;;;4960022;28;20442;-79
2023/07/18 05:31:57;;;;;;;4.07;2.50;;;14.80;99.90;;;;;;4967410;28;20053;-81
2023/07/18 05:34:22;;;;;;;4.53;2.70;;;14.90;99.90;;;;;;4964042;28;20026;-82
2023/07/18 05:36:48;;;;;;;4.07;2.65;;;15.10;99.90;;;;;;4962099;28;20028;-80
2023/07/18 05:39:14;;;;;;;7.00;2.67;;;15.40;99.90;;;;;;4963520;28;20035;-80
2023/07/18 05:41:40;;;;;;;5.47;2.60;;;15.70;99.90;;;;;;4959108;28;20161;-80
2023/07/18 05:44:07;;;;;;;4.25;2.58;;;15.80;99.90;;;;;;4975965;28;20038;-83
2023/07/18 05:46:33;;;;;;;4.15;3.05;;;16.10;99.90;;;;;;4971176;28;20481;-80
2023/07/18 05:48:59;;;;;;;4.57;2.95;;;16.50;99.90;;;;;;4964856;28;20111;-80
2023/07/18 05:51:25;;;;;;;8.68;2.97;;;16.90;99.90;;;;;;4965090;28;20058;-80
2023/07/18 05:53:50;;;;;;;4.30;2.75;;;17.20;99.70;;;;;;4967717;28;20408;-79
2023/07/18 05:56:16;;;;;;;5.82;2.75;;;17.40;98.60;;;;;;4968665;28;20043;-78
2023/07/18 05:58:42;;;;;;;4.72;2.80;;;17.70;98.60;;;;;;4964237;28;20020;-79
2023/07/18 06:01:14;;;;;;;4.60;2.85;;;18.10;97.90;;;;;;4967900;28;20089;-80
2023/07/18 06:03:40;;;;;;;3.38;2.50;;;18.30;96.50;;;;;;4969203;28;20031;-80
2023/07/18 06:06:07;;;;;;;4.85;2.65;;;18.50;96.10;;;;;;4957729;28;20043;-80
2023/07/18 06:08:33;;;;;;;5.93;3.00;;;18.90;97.00;;;;;;4965621;28;20035;-80
2023/07/18 06:10:59;;;;;;;3.55;2.40;;;19.20;96.70;;;;;;4952717;28;20158;-80
2023/07/18 06:13:25;;;;;;;6.88;2.83;;;19.60;96.10;;;;;;4961906;28;20133;-80
2023/07/18 06:15:51;;;;;;;3.50;2.80;;;19.90;94.50;;;;;;4960711;28;20027;-79
2023/07/18 06:18:17;;;;;;;4.70;2.63;;;20.10;94.50;;;;;;4957141;28;20155;-81
2023/07/18 06:20:43;;;;;;;4.57;2.28;;;20.40;92.60;;;;;;4960641;28;20089;-81
2023/07/18 06:23:09;;;;;;;4.80;2.40;;;20.70;92.50;;;;;;4955644;28;20047;-79
2023/07/18 06:25:35;;;;;;;4.63;2.53;;;21.20;91.30;;;;;;4961957;28;20046;-78
2023/07/18 06:28:02;;;;;;;4.65;2.92;;;21.60;90.40;;;;;;4951727;28;20669;-80
2023/07/18 06:30:29;;;;;;;2.83;2.38;;;21.80;86.80;;;;;;4956313;28;20027;-80
2023/07/18 06:32:55;;;;;;;2.47;2.10;;;21.90;87.50;;;;;;4961595;28;20033;-81
2023/07/18 06:35:21;;;;;;;4.50;2.42;;;22.30;89.00;;;;;;4961908;28;20486;-80
2023/07/18 06:37:46;;;;;;;4.93;2.47;;;22.50;79.90;;;;;;4957150;28;20402;-81
2023/07/18 06:40:12;;;;;;;3.15;2.42;;;22.40;81.40;;;;;;4959360;28;20097;-80
2023/07/18 06:42:39;;;;;;;4.10;2.38;;;22.50;82.50;;;;;;4961511;28;20023;-81
2023/07/18 06:45:07;;;;;;;3.85;2.17;;;22.90;82.30;;;;;;4964993;28;20509;-80
2023/07/18 06:47:33;;;;;;;2.58;2.05;;;23.10;77.50;;;;;;4970520;28;20054;-80
2023/07/18 06:49:58;;;;;;;3.55;2.28;;;23.40;78.70;;;;;;4962457;28;20537;-81
2023/07/18 06:52:25;;;;;;;5.00;2.70;;;23.70;76.20;;;;;;4956493;28;20027;-81
2023/07/18 06:54:51;;;;;;;10.02;2.95;;;23.50;72.70;;;;;;4957332;28;20042;-80
2023/07/18 06:57:17;;;;;;;4.97;2.63;;;23.70;73.40;;;;;;4962083;28;20038;-80
2023/07/18 06:59:43;;;;;;;5.45;2.53;;;24.00;71.70;;;;;;4965168;28;20047;-81
2023/07/18 07:02:10;;;;;;;3.03;1.80;;;23.80;72.40;;;;;;4966305;28;20035;-81
2023/07/18 07:04:37;;;;;;;3.72;2.42;;;23.70;63.60;;;;;;4967375;28;20125;-80
2023/07/18 07:07:04;;;;;;;3.42;2.00;;;23.50;66.70;;;;;;4966016;28;20023;-80
2023/07/18 07:09:31;;;;;;;3.08;1.60;;;23.80;69.70;;;;;;4964248;28;20473;-79
2023/07/18 07:11:57;;;;;;;4.55;1.80;;;24.20;68.50;;;;;;4966040;28;20046;-80
2023/07/18 07:14:22;;;;;;;1.65;1.50;;;24.50;64.80;;;;;;4966263;28;20043;-78
2023/07/18 07:16:48;;;;;;;2.42;1.45;;;24.40;59.90;;;;;;4971302;28;20027;-78
2023/07/18 07:19:14;;;;;;;2.55;1.58;;;24.40;57.50;;;;;;4966900;28;20106;-78
2023/07/18 07:21:40;;;;;;;3.13;2.00;;;24.70;55.40;;;;;;4974206;28;20055;-80
2023/07/18 07:24:06;;;;;;;2.88;2.35;;;24.70;56.80;;;;;;4965403;28;20035;-81
2023/07/18 07:26:32;;;;;;;2.33;1.88;;;24.70;59.10;;;;;;4964183;28;20053;-82
2023/07/18 07:28:57;;;;;;;4.72;1.80;;;24.90;58.10;;;;;;4963028;28;20488;-79
2023/07/18 07:31:23;;;;;;;3.28;1.85;;;24.90;57.00;;;;;;4962635;28;20043;-81
2023/07/18 07:33:49;;;;;;;2.63;1.70;;;25.00;55.60;;;;;;4963171;28;20118;-79
2023/07/18 07:36:15;;;;;;;3.85;1.67;;;24.80;58.70;;;;;;4962879;28;20043;-79
2023/07/18 07:38:41;;;;;;;3.80;1.75;;;24.80;58.50;;;;;;4966903;28;20039;-78
2023/07/18 07:41:07;;;;;;;5.82;1.80;;;24.70;59.30;;;;;;4967657;28;20529;-78
2023/07/18 07:43:33;;;;;;;3.10;1.88;;;24.80;60.40;;;;;;4970078;28;20031;-78
2023/07/18 07:45:59;;;;;;;4.82;1.80;;;24.90;59.40;;;;;;4958977;28;20104;-80
2023/07/18 07:48:25;;;;;;;3.85;1.60;;;25.00;58.30;;;;;;4960244;28;20675;-80
2023/07/18 07:50:51;;;;;;;2.85;1.85;;;25.00;56.80;;;;;;4960422;28;20042;-77
2023/07/18 07:53:17;;;;;;;2.45;1.48;;;25.10;52.80;;;;;;4953795;28;20050;-80
2023/07/18 07:55:42;;;;;;;1.80;1.30;;;25.00;52.90;;;;;;4951078;28;20047;-80
2023/07/18 07:58:08;;;;;;;3.05;1.88;;;24.80;56.30;;;;;;4965220;28;20050;-79
2023/07/18 08:00:34;;;;;;;1.67;1.45;;;24.90;56.90;;;;;;4973247;28;20027;-78
2023/07/18 08:02:59;;;;;;;2.47;1.50;;;25.00;56.40;;;;;;4953660;28;20145;-76
2023/07/18 08:05:25;;;;;;;2.85;2.08;;;25.10;54.80;;;;;;4955777;28;20097;-79
2023/07/18 08:07:52;;;;;;;2.97;1.73;;;25.40;55.30;;;;;;4964938;28;20047;-79
2023/07/18 08:10:18;;;;;;;2.63;1.50;;;25.70;54.30;;;;;;4962355;28;20066;-79
2023/07/18 08:12:44;;;;;;;2.25;1.33;;;26.10;52.60;;;;;;4967437;28;20703;-80
2023/07/18 08:15:09;;;;;;;1.98;1.40;;;26.40;52.00;;;;;;4958790;28;20027;-78
2023/07/18 08:17:35;;;;;;;2.53;1.83;;;26.80;50.80;;;;;;4960589;28;20513;-79
2023/07/18 08:20:01;;;;;;;5.93;1.98;;;26.80;49.10;;;;;;4960069;28;20441;-78
2023/07/18 08:22:26;;;;;;;2.97;1.40;;;26.70;49.50;;;;;;4958800;28;20031;-77
2023/07/18 08:24:52;;;;;;;4.43;1.73;;;26.20;49.40;;;;;;4949358;28;20077;-78
2023/07/18 08:27:18;;;;;;;2.08;1.50;;;26.20;49.10;;;;;;4948207;28;20490;-78
2023/07/18 08:29:44;;;;;;;3.42;1.85;;;26.20;51.10;;;;;;4950928;28;20607;-79
2023/07/18 08:32:11;;;;;;;5.80;1.83;;;26.40;49.40;;;;;;4950869;28;20031;-78
2023/07/18 08:34:36;;;;;;;2.10;1.60;;;26.20;50.00;;;;;;4954518;28;20097;-78
2023/07/18 08:37:02;;;;;;;3.35;1.60;;;26.10;49.80;;;;;;4952267;28;20023;-77
2023/07/18 08:39:47;;;;;;;3.10;1.50;;;25.60;51.90;;;;;;4953390;28;20485;-78
2023/07/18 08:42:14;;;;;;;3.78;2.25;;;25.70;51.50;;;;;;4966633;28;20034;-78
2023/07/18 08:44:42;;;;;;;2.88;1.83;;;25.90;53.20;;;;;;4963643;28;20038;-79
2023/07/18 08:47:09;;;;;;;5.18;1.60;;;26.20;55.00;;;;;;4964959;28;20042;-78
2023/07/18 08:49:38;;;;;;;3.25;1.80;;;26.40;48.70;;;;;;4956675;28;20042;-79
2023/07/18 08:52:04;;;;;;;4.22;2.28;;;26.40;50.80;;;;;;4960924;28;20073;-80
2023/07/18 08:54:30;;;;;;;4.75;2.00;;;26.30;49.70;;;;;;4961096;28;20035;-80
2023/07/18 08:56:56;;;;;;;2.45;1.50;;;26.10;50.20;;;;;;4963506;28;20500;-79
2023/07/18 08:59:22;;;;;;;3.55;1.83;;;25.50;51.50;;;;;;4966959;28;20054;-78
2023/07/18 09:01:50;;;;;;;2.50;1.50;;;25.10;53.40;;;;;;4967385;28;20658;-79
2023/07/18 09:04:17;;;;;;;3.50;1.85;;;25.00;52.70;;;;;;4966885;28;20138;-80
2023/07/18 09:07:14;;;;;;;4.45;1.60;;;25.00;51.50;;;;;;4966421;28;20038;-76
2023/07/18 09:09:46;;;;;;;3.47;1.52;;;24.80;52.50;;;;;;4948753;28;20039;-80
2023/07/18 09:12:13;;;;;;;10.07;1.90;;;24.70;54.00;;;;;;4964426;28;20035;-79
2023/07/18 09:14:39;;;;;;;4.13;1.60;;;24.60;52.30;;;;;;4963644;28;20486;-79
2023/07/18 09:17:06;;;;;;;1.63;1.30;;;24.50;53.10;;;;;;4967343;28;20030;-79
2023/07/18 09:19:39;;;;;;;2.42;1.60;;;24.40;54.70;;;;;;4964580;28;20027;-80
2023/07/18 09:22:07;;;;;;;4.93;1.60;;;24.40;54.60;;;;;;4956710;28;20114;-80
2023/07/18 09:24:35;;;;;;;3.42;1.90;;;24.30;55.00;;;;;;4954524;28;20035;-79
2023/07/18 09:27:05;;;;;;;3.05;1.90;;;24.30;55.00;;;;;;4940760;28;20043;-79
2023/07/18 09:29:31;;;;;;;4.57;2.25;;;24.40;55.40;;;;;;4951675;28;20043;-79
2023/07/18 09:31:57;;;;;;;3.72;1.83;;;24.40;53.80;;;;;;4954213;28;20503;-77
2023/07/18 09:34:26;;;;;;;2.45;1.65;;;24.10;53.90;;;;;;4951860;28;20051;-77
2023/07/18 09:36:59;;;;;;;3.97;1.55;;;23.60;53.80;;;;;;4959102;28;20054;-77
2023/07/18 09:39:27;;;;;;;2.17;1.35;;;23.60;55.70;;;;;;4959578;28;20023;-76
2023/07/18 09:41:54;;;;;;;2.08;1.65;;;23.60;55.20;;;;;;4957361;28;20576;-77
2023/07/18 09:44:22;;;;;;;2.00;1.40;;;23.70;55.40;;;;;;4958536;28;20058;-77
2023/07/18 09:46:50;;;;;;;3.35;1.50;;;23.70;55.60;;;;;;4958356;28;20525;-77
2023/07/18 09:49:17;;;;;;;2.03;1.63;;;23.80;56.80;;;;;;4957504;28;20085;-77
2023/07/18 09:51:50;;;;;;;2.47;1.65;;;23.70;55.20;;;;;;4960803;28;20027;-79
2023/07/18 09:54:18;;;;;;;2.85;1.77;;;23.70;56.20;;;;;;4952214;28;20031;-77
2023/07/18 09:56:45;;;;;;;2.55;1.65;;;23.60;56.40;;;;;;4953212;28;20093;-77
2023/07/18 09:59:11;;;;;;;3.30;1.90;;;23.70;58.40;;;;;;4954972;28;20035;-77
2023/07/18 10:01:37;;;;;;;4.85;1.98;;;23.70;56.00;;;;;;4954195;28;20467;-77
2023/07/18 10:04:03;;;;;;;3.10;2.15;;;23.60;56.10;;;;;;4948483;28;20047;-77
2023/07/18 10:06:32;;;;;;;6.07;2.72;;;23.70;59.10;;;;;;4952731;28;20053;-76
2023/07/18 10:08:59;;;;;;;2.72;2.05;;;23.90;60.30;;;;;;4954145;28;20046;-78
2023/07/18 10:11:24;;;;;;;2.35;1.90;;;24.00;58.90;;;;;;4952760;28;20027;-78
2023/07/18 10:14:06;;;;;;;4.28;2.13;;;24.20;57.90;;;;;;4949635;28;20449;-77
2023/07/18 10:16:35;;;;;;;3.30;1.83;;;24.20;57.60;;;;;;4954185;28;20050;-76
2023/07/18 10:19:18;;;;;;;3.25;1.95;;;24.20;55.80;;;;;;4961023;28;20019;-77
2023/07/18 10:21:49;;;;;;;4.28;2.00;;;24.20;56.50;;;;;;4960722;28;20023;-76
2023/07/18 10:24:24;;;;;;;2.65;1.90;;;24.20;55.70;;;;;;4956546;28;20121;-76
2023/07/18 10:26:59;;;;;;;3.42;2.13;;;24.30;59.50;;;;;;4954288;28;20449;-76
2023/07/18 10:29:32;;;;;;;1.98;1.77;;;24.30;54.70;;;;;;4955092;28;20473;-76
2023/07/18 10:32:00;;;;;;;2.10;1.90;;;24.30;56.70;;;;;;4958066;28;20490;-76
2023/07/18 10:34:26;;;;;;;3.75;1.92;;;24.20;55.70;;;;;;4953975;28;20127;-76
2023/07/18 10:37:00;;;;;;;4.20;2.17;;;24.30;60.30;;;;;;4958612;28;20118;-76
2023/07/18 10:39:39;;;;;;;4.15;2.40;;;24.40;57.30;;;;;;4956285;28;20725;-76
2023/07/18 10:42:20;;;;;;;4.32;2.30;;;24.40;56.80;;;;;;4955187;28;20722;-76
2023/07/18 10:45:00;;;;;;;3.03;2.03;;;24.60;59.30;;;;;;4959832;28;20041;-76
2023/07/18 10:47:27;;;;;;;3.58;2.05;;;24.70;56.50;;;;;;4960766;28;20047;-75
2023/07/18 10:50:15;;;;;;;7.00;2.60;;;24.80;58.00;;;;;;4951932;28;20402;-77
2023/07/18 10:52:41;;;;;;;4.72;2.33;;;25.00;56.10;;;;;;4943082;28;20047;-76
2023/07/18 10:55:07;;;;;;;2.72;2.20;;;25.10;56.60;;;;;;4945292;28;20122;-78
2023/07/18 10:57:35;;;;;;;4.82;2.10;;;25.20;55.50;;;;;;4965437;28;20031;-76
2023/07/18 11:00:04;;;;;;;3.03;2.00;;;25.10;54.70;;;;;;4952318;28;20035;-76
2023/07/18 11:02:43;;;;;;;2.95;2.15;;;25.20;56.30;;;;;;4953467;28;20031;-75
2023/07/18 11:05:11;;;;;;;4.70;2.00;;;25.00;56.70;;;;;;4954128;28;20130;-76
2023/07/18 11:07:40;;;;;;;3.47;2.30;;;25.00;55.30;;;;;;4954014;28;20019;-77
2023/07/18 11:10:10;;;;;;;3.03;1.88;;;25.10;56.80;;;;;;4955810;28;20035;-76
2023/07/18 11:12:36;;;;;;;3.67;2.40;;;25.20;57.30;;;;;;4959060;28;20027;-76
2023/07/18 11:15:06;;;;;;;3.53;2.30;;;25.30;55.40;;;;;;4962447;28;20039;-77
2023/07/18 11:17:33;;;;;;;3.42;2.30;;;25.30;53.70;;;;;;4957926;28;20553;-76
2023/07/18 11:19:59;;;;;;;5.15;1.83;;;25.40;56.80;;;;;;4954818;28;20093;-77
2023/07/18 11:22:25;;;;;;;2.95;1.75;;;25.60;54.50;;;;;;4967813;28;20035;-77
2023/07/18 11:24:51;;;;;;;2.25;1.90;;;25.80;56.40;;;;;;4964691;28;20045;-77
2023/07/18 11:27:25;;;;;;;3.55;2.20;;;25.90;56.90;;;;;;4963165;28;20034;-77
2023/07/18 11:30:03;;;;;;;4.10;2.10;;;26.00;56.60;;;;;;4949077;28;20035;-77
2023/07/18 11:32:40;;;;;;;2.90;2.08;;;26.20;56.00;;;;;;4951118;28;20402;-77
2023/07/18 11:35:20;;;;;;;2.88;2.10;;;26.30;54.90;;;;;;4955709;28;20654;-76
2023/07/18 11:37:48;;;;;;;4.50;2.72;;;26.40;55.20;;;;;;4945512;28;20032;-76
2023/07/18 11:40:23;;;;;;;2.65;2.20;;;26.50;54.90;;;;;;4948527;28;20023;-77
2023/07/18 11:42:49;;;;;;;5.32;2.10;;;26.50;51.50;;;;;;4953902;28;20035;-77
2023/07/18 11:45:17;;;;;;;4.25;2.33;;;26.50;54.10;;;;;;4952478;28;21118;-76
2023/07/18 11:47:48;;;;;;;3.35;1.80;;;26.50;53.20;;;;;;4951193;28;20029;-76
2023/07/18 11:50:14;;;;;;;3.33;1.80;;;26.50;55.40;;;;;;4955868;28;20151;-77
2023/07/18 11:52:50;;;;;;;3.53;1.70;;;26.60;55.80;;;;;;4950622;28;20118;-77
2023/07/18 11:55:21;;;;;;;2.80;1.98;;;26.60;52.00;;;;;;4958002;28;20038;-78
2023/07/18 11:57:48;;;;;;;3.45;1.75;;;26.80;55.60;;;;;;4951992;28;20038;-78
2023/07/18 12:00:17;;;;;;;3.92;2.15;;;26.90;55.00;;;;;;4951215;28;20043;-77
2023/07/18 12:02:44;;;;;;;3.83;2.40;;;26.90;52.90;;;;;;4948742;28;20066;-77
2023/07/18 12:05:11;;;;;;;3.15;2.22;;;27.10;53.90;;;;;;4949774;28;20028;-77
2023/07/18 12:07:37;;;;;;;2.53;2.03;;;27.10;55.70;;;;;;4950186;28;20062;-77
2023/07/18 12:10:07;;;;;;;2.83;1.98;;;27.10;49.70;;;;;;4947766;28;20510;-77
2023/07/18 12:12:39;;;;;;;4.25;2.05;;;27.20;53.20;;;;;;4951213;28;20035;-77
2023/07/18 12:15:08;;;;;;;2.92;1.90;;;27.10;52.20;;;;;;4960592;28;20027;-78
2023/07/18 12:17:34;;;;;;;2.38;1.70;;;27.10;52.40;;;;;;4961672;28;20019;-78
2023/07/18 12:20:00;;;;;;;5.30;2.30;;;27.30;53.90;;;;;;4963039;28;20030;-79
2023/07/18 12:22:26;;;;;;;3.58;1.88;;;27.00;51.30;;;;;;4957282;28;20034;-78
2023/07/18 12:24:52;;;;;;;2.60;2.13;;;26.80;49.90;;;;;;4964228;28;20536;-78
2023/07/18 12:27:17;;;;;;;3.60;1.75;;;26.90;53.00;;;;;;4957984;28;20039;-77
2023/07/18 12:29:44;;;;;;;4.35;1.85;;;27.00;56.30;;;;;;4954721;28;20035;-78
2023/07/18 12:32:10;;;;;;;2.92;1.98;;;27.20;57.20;;;;;;4960423;28;20027;-78
2023/07/18 12:34:39;;;;;;;2.97;1.77;;;27.50;56.30;;;;;;4959539;28;20033;-77
2023/07/18 12:37:06;;;;;;;3.10;1.98;;;27.80;55.20;;;;;;4957030;28;20167;-78
2023/07/18 12:39:32;;;;;;;2.85;2.13;;;28.10;54.40;;;;;;4963099;28;20089;-78
2023/07/18 12:41:58;;;;;;;4.18;2.10;;;28.50;51.60;;;;;;4962180;28;20118;-78
2023/07/18 12:44:46;;;;;;;4.88;2.20;;;28.60;50.90;;;;;;4959740;28;20023;-78
2023/07/18 12:47:13;;;;;;;2.70;2.10;;;28.60;52.60;;;;;;4963047;28;20038;-79
2023/07/18 12:49:39;;;;;;;2.00;1.75;;;28.50;54.30;;;;;;4962202;28;20054;-77